Time;durP1;ratioP1;P1;durP2;ratioP2;P2;SDS_P1;SDS_P2;PMS_P1;PMS_P2;Temp;Humidity;BMP_temperature;BMP_pressure;BME280_temperature;BME280_humidity;BME280_pressure;Samples;Min_cycle;Max_cycle;Signal;HPM_P1;HPM_P2
2022/06/04 03:00:29;;;;;;;72.30;67.87;;;14.50;99.90;;;;;;5923669;23;20179;-74
2022/06/04 03:02:55;;;;;;;82.93;78.40;;;14.50;99.90;;;;;;5011490;28;20195;-74
2022/06/04 03:05:25;;;;;;;62.30;58.30;;;14.50;99.90;;;;;;5013476;28;20191;-74
2022/06/04 03:07:57;;;;;;;90.10;85.03;;;14.60;99.90;;;;;;5011172;28;20530;-74
2022/06/04 03:10:26;;;;;;;61.40;57.87;;;14.60;99.90;;;;;;5012136;28;20191;-73
2022/06/04 03:12:53;;;;;;;50.60;47.50;;;14.50;99.90;;;;;;5010751;28;20274;-74
2022/06/04 03:15:20;;;;;;;54.77;51.67;;;14.50;99.90;;;;;;5022455;23;20673;-74
2022/06/04 03:17:47;;;;;;;85.13;80.63;;;14.50;99.90;;;;;;4989632;28;20659;-75
2022/06/04 03:20:19;;;;;;;85.07;80.43;;;14.50;99.90;;;;;;4991587;28;20185;-74
2022/06/04 03:22:45;;;;;;;88.93;84.10;;;14.50;99.90;;;;;;4991522;28;20196;-75
2022/06/04 03:25:12;;;;;;;101.23;95.77;;;14.50;99.90;;;;;;4990326;28;20204;-74
2022/06/04 03:27:37;;;;;;;69.73;65.83;;;14.50;99.90;;;;;;4991417;28;20187;-74
2022/06/04 03:30:05;;;;;;;116.50;110.10;;;14.50;99.90;;;;;;4991371;28;20676;-74
2022/06/04 03:32:31;;;;;;;32.10;29.90;;;14.60;99.90;;;;;;4991387;28;20208;-74
2022/06/04 03:34:57;;;;;;;91.00;86.07;;;14.60;99.90;;;;;;4990164;28;20200;-74
2022/06/04 03:37:23;;;;;;;100.33;94.97;;;14.60;99.90;;;;;;4990920;28;20189;-74
2022/06/04 03:39:49;;;;;;;108.77;102.87;;;14.60;99.90;;;;;;4994025;28;20235;-74
2022/06/04 03:42:15;;;;;;;90.30;85.23;;;14.60;99.90;;;;;;4995378;28;20195;-74
2022/06/04 03:44:46;;;;;;;92.40;87.53;;;14.70;99.90;;;;;;4995241;28;20290;-74
2022/06/04 03:47:13;;;;;;;110.97;105.20;;;14.80;99.90;;;;;;4994767;28;20219;-74
2022/06/04 03:49:38;;;;;;;17.77;16.37;;;14.90;99.90;;;;;;4993859;28;20189;-74
2022/06/04 03:52:06;;;;;;;14.07;12.87;;;14.90;99.90;;;;;;4995043;28;20218;-74
2022/06/04 03:58:01;;;;;;;23.90;22.37;;;14.90;99.90;;;;;;4994950;28;20190;-74
2022/06/04 04:00:19;;;;;;;19.03;17.77;;;15.00;99.90;;;;;;4985409;28;20184;-74
2022/06/04 04:03:10;;;;;;;28.13;26.03;;;15.20;99.90;;;;;;4994810;28;20191;-74
2022/06/04 04:05:41;;;;;;;23.43;21.97;;;15.30;99.90;;;;;;4993259;28;20266;-74
2022/06/04 04:08:09;;;;;;;16.03;14.90;;;15.40;99.90;;;;;;4994263;28;20191;-74
2022/06/04 04:10:36;;;;;;;16.93;15.73;;;15.50;99.90;;;;;;4994600;28;20182;-74
2022/06/04 04:13:02;;;;;;;45.60;42.77;;;15.60;99.90;;;;;;4993224;28;20890;-74
2022/06/04 04:15:28;;;;;;;17.37;16.17;;;15.70;99.90;;;;;;4994543;28;20243;-74
2022/06/04 04:17:54;;;;;;;19.97;18.67;;;15.80;99.90;;;;;;4994156;28;20184;-74
2022/06/04 04:20:26;;;;;;;72.10;68.17;;;15.90;99.90;;;;;;4994230;28;20177;-75
2022/06/04 04:22:52;;;;;;;25.23;23.70;;;16.10;99.90;;;;;;4994417;28;20215;-74
2022/06/04 04:25:20;;;;;;;24.63;23.13;;;16.10;99.90;;;;;;4994420;28;20765;-74
2022/06/04 04:27:47;;;;;;;22.80;21.43;;;16.20;99.90;;;;;;4994023;28;20804;-74
2022/06/04 04:30:17;;;;;;;33.87;31.30;;;16.40;99.90;;;;;;4994115;28;20207;-74
2022/06/04 04:32:43;;;;;;;45.50;42.97;;;16.50;99.90;;;;;;4994336;28;20215;-74
2022/06/04 04:35:15;;;;;;;58.10;54.73;;;16.60;99.90;;;;;;4992958;28;20287;-74
2022/06/04 04:37:42;;;;;;;74.13;70.17;;;16.60;99.90;;;;;;4995115;28;20239;-74
2022/06/04 04:40:09;;;;;;;62.87;59.40;;;16.60;99.90;;;;;;4996529;28;20208;-74
2022/06/04 04:42:35;;;;;;;90.23;85.57;;;16.60;99.90;;;;;;4995689;28;20648;-74
2022/06/04 04:45:00;;;;;;;79.50;75.20;;;16.60;99.90;;;;;;4994463;28;20204;-75
2022/06/04 04:47:26;;;;;;;53.53;50.40;;;16.70;99.90;;;;;;4992543;28;20223;-74
2022/06/04 04:49:52;;;;;;;52.07;49.07;;;16.70;99.90;;;;;;4993026;28;20254;-74
2022/06/04 04:52:18;;;;;;;43.17;40.40;;;16.70;99.90;;;;;;4993058;28;20208;-74
2022/06/04 04:54:44;;;;;;;35.10;33.07;;;16.70;99.90;;;;;;4992610;28;20201;-74
2022/06/04 04:57:10;;;;;;;36.17;34.17;;;16.80;99.90;;;;;;4993442;28;20184;-74
2022/06/04 04:59:36;;;;;;;39.73;37.57;;;17.00;99.90;;;;;;4994014;28;20176;-77
2022/06/04 05:02:02;;;;;;;150.47;142.67;;;17.20;99.90;;;;;;4993666;28;20188;-74
2022/06/04 05:04:28;;;;;;;14.20;13.23;;;17.60;99.90;;;;;;4987990;28;20216;-74
2022/06/04 05:06:54;;;;;;;15.67;14.77;;;18.10;99.90;;;;;;4993164;28;20194;-74
2022/06/04 05:09:20;;;;;;;27.40;25.63;;;18.50;99.90;;;;;;4993422;28;20598;-74
2022/06/04 05:11:46;;;;;;;12.43;11.77;;;19.00;99.90;;;;;;4992884;28;20672;-75
2022/06/04 05:14:12;;;;;;;35.47;33.13;;;19.70;99.90;;;;;;4993343;28;20251;-74
2022/06/04 05:16:39;;;;;;;110.78;105.07;;;20.40;99.90;;;;;;4992369;28;20279;-74
2022/06/04 05:19:06;;;;;;;20.13;18.88;;;20.80;99.90;;;;;;4992778;28;20187;-75
2022/06/04 05:21:44;;;;;;;14.65;13.55;;;21.00;99.90;;;;;;4992067;28;20651;-75
2022/06/04 05:24:16;;;;;;;14.07;13.10;;;21.30;99.90;;;;;;4992181;28;20180;-75
2022/06/04 05:26:42;;;;;;;12.23;11.50;;;21.50;99.90;;;;;;4993232;28;20586;-75
2022/06/04 05:29:08;;;;;;;7.95;7.45;;;21.30;99.90;;;;;;4992969;28;20180;-75
2022/06/04 05:31:33;;;;;;;8.00;7.30;;;21.10;99.90;;;;;;4993201;28;20300;-75
2022/06/04 05:33:59;;;;;;;18.95;17.88;;;20.70;99.90;;;;;;4993548;28;20602;-75
2022/06/04 05:36:28;;;;;;;15.70;14.85;;;20.40;99.90;;;;;;4992262;28;20208;-75
2022/06/04 05:38:54;;;;;;;36.45;34.47;;;20.10;99.90;;;;;;4992700;28;20180;-74
2022/06/04 05:41:19;;;;;;;9.23;8.63;;;19.80;99.90;;;;;;4992639;28;20239;-74
2022/06/04 05:43:45;;;;;;;20.95;19.50;;;19.50;99.90;;;;;;4992727;28;20546;-74
2022/06/04 05:46:14;;;;;;;31.47;29.60;;;19.30;99.90;;;;;;4991903;28;20250;-75
2022/06/04 05:48:42;;;;;;;53.17;50.40;;;19.10;99.90;;;;;;4992233;28;20275;-75
2022/06/04 05:51:14;;;;;;;54.77;51.63;;;19.00;99.90;;;;;;4991413;28;20526;-75
2022/06/04 05:53:40;;;;;;;36.67;34.43;;;18.90;99.90;;;;;;4983354;28;20251;-75
2022/06/04 05:56:11;;;;;;;20.80;19.53;;;18.90;99.90;;;;;;4971862;28;20208;-75
2022/06/04 05:58:38;;;;;;;18.10;16.90;;;19.00;99.90;;;;;;4972860;28;20653;-76
2022/06/04 06:01:03;;;;;;;11.33;10.53;;;19.00;99.90;;;;;;4990187;28;20180;-75
2022/06/04 06:03:29;;;;;;;13.20;12.27;;;19.00;99.90;;;;;;4992254;28;20568;-75
2022/06/04 06:05:55;;;;;;;15.53;14.23;;;19.10;99.90;;;;;;4992286;28;20200;-76
2022/06/04 06:08:21;;;;;;;12.83;11.90;;;19.10;99.90;;;;;;4991464;28;20184;-72
2022/06/04 06:10:47;;;;;;;11.53;10.73;;;19.20;99.90;;;;;;4991632;28;20184;-72
2022/06/04 06:13:13;;;;;;;46.23;43.83;;;19.30;99.90;;;;;;4986418;28;20225;-72
2022/06/04 06:15:39;;;;;;;71.30;67.50;;;19.50;99.90;;;;;;4973278;28;20263;-72
2022/06/04 06:18:06;;;;;;;57.70;54.40;;;19.60;99.90;;;;;;4971959;28;20185;-72
2022/06/04 06:20:33;;;;;;;33.70;31.77;;;19.60;99.90;;;;;;4981471;28;20176;-72
2022/06/04 06:22:59;;;;;;;27.87;26.10;;;19.40;99.90;;;;;;4991287;28;20186;-72
2022/06/04 06:25:25;;;;;;;22.00;20.37;;;19.40;99.90;;;;;;4992284;28;20196;-72
2022/06/04 06:27:51;;;;;;;17.87;16.70;;;19.40;99.90;;;;;;4992152;28;20188;-72
2022/06/04 06:30:17;;;;;;;37.17;34.87;;;19.40;99.90;;;;;;4990931;28;20180;-72
2022/06/04 06:32:43;;;;;;;25.03;23.47;;;19.40;99.90;;;;;;4992199;28;20303;-72
2022/06/04 06:35:10;;;;;;;14.37;13.33;;;19.30;99.90;;;;;;4991146;28;20299;-71
2022/06/04 06:37:36;;;;;;;10.87;9.80;;;19.30;99.90;;;;;;4991897;28;20586;-71
2022/06/04 06:40:04;;;;;;;11.80;10.33;;;19.20;99.90;;;;;;4991947;28;20172;-71
2022/06/04 06:42:30;;;;;;;11.50;10.77;;;19.20;99.90;;;;;;4991070;28;20191;-71
2022/06/04 06:44:56;;;;;;;13.40;12.47;;;19.10;99.90;;;;;;4992164;28;20593;-71
2022/06/04 06:47:23;;;;;;;49.73;46.90;;;18.90;99.90;;;;;;4991640;28;20702;-71
2022/06/04 06:49:49;;;;;;;200.13;189.10;;;18.60;99.90;;;;;;4990570;28;20189;-71
2022/06/04 06:52:16;;;;;;;275.93;261.37;;;18.40;99.90;;;;;;4990812;28;20718;-71
2022/06/04 06:54:43;;;;;;;133.97;126.93;;;18.10;99.90;;;;;;4990739;28;20286;-72
2022/06/04 06:57:11;;;;;;;122.07;115.50;;;18.00;99.90;;;;;;4991895;28;20804;-71
2022/06/04 06:59:43;;;;;;;64.37;60.93;;;17.80;99.90;;;;;;4990724;28;20566;-71
2022/06/04 07:02:10;;;;;;;34.67;32.37;;;17.60;99.90;;;;;;4990579;28;20271;-72
2022/06/04 07:04:36;;;;;;;33.80;31.50;;;17.50;99.90;;;;;;4991884;28;20737;-71
2022/06/04 07:07:02;;;;;;;56.23;53.03;;;17.50;99.90;;;;;;4990386;28;20271;-71
2022/06/04 07:09:31;;;;;;;61.30;57.57;;;17.60;99.90;;;;;;4990566;28;20184;-71
2022/06/04 07:11:57;;;;;;;52.20;49.30;;;17.60;99.90;;;;;;4984290;28;20751;-71
2022/06/04 07:14:24;;;;;;;30.27;28.30;;;17.60;99.90;;;;;;4978004;28;20568;-70
2022/06/04 07:16:51;;;;;;;20.53;19.00;;;17.50;99.90;;;;;;4978405;28;20219;-70
2022/06/04 07:19:18;;;;;;;16.90;15.63;;;17.40;99.90;;;;;;4995324;28;20568;-71
2022/06/04 07:21:45;;;;;;;27.47;25.33;;;17.50;99.90;;;;;;4993851;28;20195;-71
2022/06/04 07:24:11;;;;;;;39.30;36.97;;;17.60;99.90;;;;;;4994059;28;20211;-70
2022/06/04 07:26:39;;;;;;;41.67;39.07;;;17.80;99.90;;;;;;4995363;28;20188;-73
2022/06/04 07:29:06;;;;;;;49.70;46.73;;;17.90;99.90;;;;;;4992544;28;20187;-72
2022/06/04 07:31:32;;;;;;;33.07;31.00;;;18.10;99.90;;;;;;4981004;28;20216;-74
2022/06/04 07:33:58;;;;;;;42.57;40.07;;;18.10;99.90;;;;;;4976759;28;20177;-74
2022/06/04 07:36:33;;;;;;;48.37;45.50;;;18.10;99.90;;;;;;4975564;28;20200;-74
2022/06/04 07:38:59;;;;;;;75.80;71.63;;;18.10;99.90;;;;;;4991358;28;20230;-74
2022/06/04 07:41:28;;;;;;;71.40;67.03;;;18.30;99.90;;;;;;4993446;28;20235;-73
2022/06/04 07:43:54;;;;;;;96.30;90.63;;;18.60;99.90;;;;;;4994360;28;20188;-73
2022/06/04 07:46:21;;;;;;;99.50;94.13;;;18.90;99.90;;;;;;4995344;28;20197;-73
2022/06/04 07:48:47;;;;;;;97.53;92.10;;;19.10;99.90;;;;;;4995687;28;20188;-73
2022/06/04 07:51:14;;;;;;;69.17;65.40;;;19.30;99.90;;;;;;4995376;28;20180;-74
2022/06/04 07:53:40;;;;;;;81.93;77.47;;;19.60;99.90;;;;;;4995932;28;20366;-76
2022/06/04 07:56:15;;;;;;;61.20;57.90;;;19.90;99.90;;;;;;4994899;28;20192;-72
2022/06/04 07:58:42;;;;;;;30.57;28.67;;;20.20;99.90;;;;;;4991508;28;20344;-73
2022/06/04 08:01:10;;;;;;;47.67;45.00;;;20.60;99.90;;;;;;4993903;28;20197;-74
2022/06/04 08:03:37;;;;;;;34.83;32.83;;;20.80;99.90;;;;;;4994365;28;20191;-73
2022/06/04 08:06:04;;;;;;;89.43;84.75;;;21.40;99.90;;;;;;4993082;28;20704;-74
2022/06/04 08:08:32;;;;;;;52.53;49.65;;;22.40;99.90;;;;;;4994305;28;20672;-73
2022/06/04 08:10:59;;;;;;;27.88;26.20;;;23.50;99.90;;;;;;4993878;28;20177;-73
2022/06/04 08:13:25;;;;;;;49.03;46.42;;;24.00;99.90;;;;;;4993973;28;20211;-73
2022/06/04 08:15:57;;;;;;;125.00;118.07;;;23.80;99.90;;;;;;4994525;28;20212;-73
2022/06/04 08:18:24;;;;;;;92.15;87.18;;;23.30;99.90;;;;;;4993443;28;20246;-74
2022/06/04 08:20:50;;;;;;;92.93;88.05;;;23.10;99.90;;;;;;4994095;28;20230;-74
2022/06/04 08:23:16;;;;;;;97.57;92.30;;;23.30;99.90;;;;;;4994007;28;20188;-74
2022/06/04 08:25:48;;;;;;;35.40;33.40;;;23.30;99.90;;;;;;4993860;28;20208;-75
2022/06/04 08:28:15;;;;;;;15.70;14.48;;;23.30;99.90;;;;;;4991979;28;20648;-74
2022/06/04 08:30:42;;;;;;;21.15;19.52;;;23.30;99.90;;;;;;4994135;28;20195;-73
2022/06/04 08:33:08;;;;;;;14.43;13.43;;;23.90;99.90;;;;;;4992799;28;20212;-73
2022/06/04 08:35:35;;;;;;;11.27;10.48;;;24.80;99.90;;;;;;4992761;28;20200;-73
2022/06/04 08:38:01;;;;;;;15.52;14.38;;;25.00;99.90;;;;;;4993927;28;20180;-74
2022/06/04 08:40:39;;;;;;;14.55;13.65;;;24.70;99.90;;;;;;4988412;28;20569;-74
2022/06/04 08:43:18;;;;;;;13.95;13.05;;;24.50;99.90;;;;;;4973214;28;20267;-74
2022/06/04 08:45:44;;;;;;;9.98;9.27;;;24.30;99.90;;;;;;4974472;28;20204;-74
2022/06/04 08:48:22;;;;;;;12.80;11.85;;;24.30;99.90;;;;;;4974048;28;20308;-73
2022/06/04 08:50:48;;;;;;;13.63;12.57;;;24.40;99.90;;;;;;4981453;28;20327;-74
2022/06/04 08:53:20;;;;;;;27.25;25.70;;;24.60;99.90;;;;;;4993751;28;20682;-75
2022/06/04 08:59:10;;;;;;;51.53;48.67;;;25.70;99.90;;;;;;4993300;28;20187;-74
2022/06/04 09:01:40;;;;;;;18.55;17.38;;;26.60;99.90;;;;;;4991993;28;20191;-74
2022/06/04 09:04:05;;;;;;;12.32;11.52;;;26.50;99.90;;;;;;4993056;28;20193;-76
2022/06/04 09:06:50;;;;;;;13.95;13.02;;;26.50;99.90;;;;;;4992811;28;20287;-75
2022/06/04 09:09:34;;;;;;;26.70;25.30;;;27.40;99.90;;;;;;4992355;28;20250;-74
2022/06/04 09:12:08;;;;;;;13.95;13.02;;;27.80;99.90;;;;;;4992435;28;20219;-75
2022/06/04 09:14:38;;;;;;;21.15;19.80;;;28.20;99.90;;;;;;4992035;28;20207;-76
2022/06/04 09:17:15;;;;;;;15.40;14.23;;;28.90;99.90;;;;;;4993467;28;20618;-73
2022/06/04 09:19:47;;;;;;;12.82;12.00;;;28.70;99.90;;;;;;4992756;28;20198;-74
2022/06/04 09:22:21;;;;;;;25.52;24.23;;;28.90;99.90;;;;;;4993471;28;20176;-74
2022/06/04 09:24:47;;;;;;;17.10;16.10;;;29.90;99.90;;;;;;4991808;28;20683;-73
2022/06/04 09:27:21;;;;;;;16.17;15.25;;;30.20;99.90;;;;;;4993260;28;20208;-73
2022/06/04 09:30:15;;;;;;;60.33;57.10;;;29.80;99.90;;;;;;4992323;28;20271;-74
2022/06/04 09:32:55;;;;;;;67.03;63.42;;;29.50;99.90;;;;;;4964861;28;20237;-73
2022/06/04 09:35:31;;;;;;;24.42;23.08;;;28.90;99.90;;;;;;4973312;28;20211;-76
2022/06/04 09:37:57;;;;;;;14.43;13.48;;;28.00;99.90;;;;;;4972535;28;20641;-74
2022/06/04 09:40:26;;;;;;;15.13;14.27;;;27.70;99.90;;;;;;4973211;28;20180;-74
2022/06/04 09:43:03;;;;;;;17.35;16.02;;;27.20;99.90;;;;;;4989634;28;20180;-73
2022/06/04 09:45:29;;;;;;;14.80;13.82;;;27.10;99.90;;;;;;4989414;28;20208;-74
2022/06/04 09:47:58;;;;;;;13.30;12.30;;;27.30;99.90;;;;;;4990640;28;20241;-73
2022/06/04 09:50:37;;;;;;;12.82;12.10;;;28.10;99.90;;;;;;4990631;28;20189;-74
2022/06/04 09:53:12;;;;;;;10.85;10.18;;;29.40;99.90;;;;;;4990446;28;20583;-74
2022/06/04 09:55:44;;;;;;;55.90;53.00;;;30.90;99.90;;;;;;4991205;28;20227;-73
2022/06/04 09:58:28;;;;;;;37.05;35.17;;;31.10;99.90;;;;;;4992553;28;20659;-74
2022/06/04 10:01:04;;;;;;;47.60;45.10;;;30.30;99.90;;;;;;4992675;28;20531;-74
2022/06/04 10:03:33;;;;;;;105.68;100.18;;;29.50;99.90;;;;;;4991460;28;20214;-74
2022/06/04 10:06:09;;;;;;;33.53;31.75;;;28.70;99.90;;;;;;4991484;28;20254;-74
2022/06/04 10:11:24;;;;;;;9.50;8.80;;;27.80;99.90;;;;;;4992414;28;20180;-74
2022/06/04 10:13:53;;;;;;;10.70;9.88;;;28.20;99.90;;;;;;4992493;28;20176;-74
2022/06/04 10:16:36;;;;;;;11.38;10.60;;;27.90;99.90;;;;;;4991398;28;20626;-75
2022/06/04 10:19:16;;;;;;;8.90;8.30;;;27.40;99.90;;;;;;4991949;28;20243;-74
2022/06/04 10:21:45;;;;;;;10.45;9.75;;;26.60;99.90;;;;;;4992267;28;20223;-74
2022/06/04 10:24:24;;;;;;;18.75;17.65;;;26.00;99.90;;;;;;4991833;28;20270;-75
2022/06/04 10:27:15;;;;;;;12.02;11.13;;;25.60;99.90;;;;;;4991234;28;20184;-74
2022/06/04 10:29:41;;;;;;;14.07;13.15;;;25.20;99.90;;;;;;4991198;28;20841;-75
2022/06/04 10:32:16;;;;;;;88.07;83.53;;;25.00;99.90;;;;;;4990409;28;20208;-74
2022/06/04 10:35:06;;;;;;;103.70;98.57;;;24.90;99.90;;;;;;4991478;28;20222;-73
2022/06/04 10:37:46;;;;;;;84.57;80.30;;;24.50;99.90;;;;;;4984283;28;20660;-74
2022/06/04 10:40:31;;;;;;;31.55;29.77;;;23.90;99.90;;;;;;4973052;28;20539;-73
2022/06/04 10:43:32;;;;;;;17.27;15.93;;;23.60;99.90;;;;;;4971634;28;20192;-73
2022/06/04 10:46:07;;;;;;;18.85;17.23;;;23.30;99.90;;;;;;4971659;28;20208;-74
2022/06/04 10:48:39;;;;;;;16.33;14.85;;;23.20;99.90;;;;;;4971526;28;20188;-77
2022/06/04 10:51:35;;;;;;;25.75;23.75;;;23.20;99.90;;;;;;4979004;28;20239;-74
2022/06/04 10:54:07;;;;;;;76.15;71.70;;;23.00;99.90;;;;;;4993391;28;20227;-73
2022/06/04 10:56:56;;;;;;;80.55;75.70;;;22.70;99.90;;;;;;4991671;28;20953;-73
2022/06/04 10:59:39;;;;;;;380.48;357.85;;;22.30;99.90;;;;;;4989491;28;20223;-74
2022/06/04 11:02:28;;;;;;;219.10;207.00;;;22.00;99.90;;;;;;4990072;28;20660;-73
2022/06/04 11:04:59;;;;;;;44.05;41.03;;;21.70;99.90;;;;;;4989350;28;20278;-73
2022/06/04 11:07:52;;;;;;;254.23;240.02;;;21.50;99.90;;;;;;4991067;28;20222;-74
2022/06/04 11:10:25;;;;;;;283.38;266.75;;;21.30;99.90;;;;;;4991125;28;20184;-73
2022/06/04 11:13:02;;;;;;;244.48;229.70;;;21.10;99.90;;;;;;4991534;28;20204;-74
2022/06/04 11:16:06;;;;;;;310.50;291.73;;;21.00;99.90;;;;;;4991442;28;20710;-72
2022/06/04 11:18:40;;;;;;;214.20;201.27;;;20.80;99.90;;;;;;4988189;28;20660;-73
2022/06/04 11:21:21;;;;;;;155.77;146.07;;;20.60;99.90;;;;;;4990225;28;20331;-72
2022/06/04 11:24:02;;;;;;;109.50;102.20;;;20.50;99.90;;;;;;4991926;28;20250;-72
2022/06/04 11:26:47;;;;;;;84.00;78.33;;;20.40;99.90;;;;;;4990374;28;20211;-73
2022/06/04 11:29:14;;;;;;;59.83;55.43;;;20.40;99.90;;;;;;4991667;28;20188;-73
2022/06/04 11:31:48;;;;;;;35.63;32.77;;;20.50;99.90;;;;;;4990029;28;20303;-73
2022/06/04 11:34:52;;;;;;;56.05;51.80;;;20.70;99.90;;;;;;4991730;28;20176;-74
2022/06/04 11:37:29;;;;;;;76.13;71.00;;;20.80;99.90;;;;;;4931184;29;20956;-73
2022/06/04 11:39:58;;;;;;;49.00;45.33;;;21.10;99.90;;;;;;4931484;29;20691;-74
2022/06/04 11:42:41;;;;;;;52.58;49.13;;;21.20;99.90;;;;;;4949944;28;20255;-73
2022/06/04 11:45:49;;;;;;;59.25;55.35;;;21.50;99.90;;;;;;4972220;28;20209;-73
2022/06/04 11:48:33;;;;;;;318.20;301.13;;;21.80;99.90;;;;;;4971908;28;20196;-73
2022/06/04 11:51:23;;;;;;;321.63;304.08;;;21.80;99.90;;;;;;4976149;28;20180;-72
2022/06/04 11:54:07;;;;;;;298.23;281.77;;;21.80;99.90;;;;;;4991475;28;20239;-73
2022/06/04 11:56:54;;;;;;;275.88;260.98;;;21.70;99.90;;;;;;4991450;28;20707;-73
2022/06/04 11:59:41;;;;;;;276.35;261.52;;;21.80;99.90;;;;;;4991750;28;20595;-74
2022/06/04 12:02:18;;;;;;;465.23;438.17;;;21.90;99.90;;;;;;4993717;28;20180;-73
2022/06/04 12:04:58;;;;;;;38.10;35.35;;;22.20;99.90;;;;;;4994071;28;20287;-74
2022/06/04 12:07:41;;;;;;;63.33;59.47;;;22.30;99.90;;;;;;4994733;28;20184;-74
2022/06/04 12:10:23;;;;;;;32.55;30.40;;;22.60;99.90;;;;;;4995095;28;20223;-72
2022/06/04 12:13:17;;;;;;;58.50;55.15;;;22.90;99.90;;;;;;4994160;28;20640;-73
2022/06/04 12:16:19;;;;;;;140.88;133.70;;;23.20;99.90;;;;;;4993667;28;20652;-72
2022/06/04 12:18:57;;;;;;;51.35;47.95;;;23.60;99.90;;;;;;4993222;28;20203;-73
2022/06/04 12:24:30;;;;;;;74.85;70.70;;;23.80;99.90;;;;;;4995306;28;20522;-74
2022/06/04 12:27:19;;;;;;;42.28;39.53;;;23.90;99.90;;;;;;4993735;28;20191;-75
2022/06/04 12:29:57;;;;;;;18.08;16.63;;;24.10;99.90;;;;;;4993717;28;20183;-74
2022/06/04 12:32:28;;;;;;;15.75;14.35;;;23.90;99.90;;;;;;4994853;28;20216;-74
2022/06/04 12:35:11;;;;;;;17.00;15.65;;;23.90;99.90;;;;;;4994601;28;20248;-73
2022/06/04 12:37:44;;;;;;;15.32;13.95;;;24.30;99.90;;;;;;4994166;28;20218;-74
2022/06/04 12:40:37;;;;;;;16.58;15.27;;;24.60;99.90;;;;;;4993332;28;20185;-74
2022/06/04 12:43:15;;;;;;;82.25;77.28;;;24.70;99.90;;;;;;4972391;28;20201;-74
2022/06/04 12:45:47;;;;;;;121.95;115.72;;;24.80;99.90;;;;;;4973655;28;20204;-75
2022/06/04 12:48:28;;;;;;;149.65;142.02;;;25.10;99.90;;;;;;4975279;28;20275;-74
2022/06/04 12:51:08;;;;;;;116.85;110.70;;;25.20;99.90;;;;;;4976532;28;20693;-74
2022/06/04 12:53:47;;;;;;;141.07;133.98;;;25.50;99.90;;;;;;4994289;28;20243;-73
2022/06/04 12:56:30;;;;;;;176.25;167.25;;;25.80;99.90;;;;;;4992631;28;20208;-73
2022/06/04 12:59:00;;;;;;;96.00;91.13;;;25.70;99.90;;;;;;4993676;28;20177;-74
2022/06/04 13:01:34;;;;;;;33.28;31.27;;;26.10;99.90;;;;;;4993609;28;20203;-74
2022/06/04 13:04:13;;;;;;;49.45;46.78;;;26.70;99.90;;;;;;4992774;28;20176;-73
2022/06/04 13:06:58;;;;;;;28.10;26.35;;;27.30;99.90;;;;;;4993644;28;20649;-74
2022/06/04 13:09:39;;;;;;;34.55;32.67;;;29.10;99.90;;;;;;4993696;28;20184;-73
2022/06/04 13:12:16;;;;;;;33.83;31.80;;;30.30;99.90;;;;;;4992331;28;20203;-74
2022/06/04 13:14:54;;;;;;;35.28;33.30;;;31.90;99.90;;;;;;4994197;28;20215;-74
2022/06/04 13:17:37;;;;;;;43.85;41.08;;;32.40;99.90;;;;;;4993341;28;20184;-74
2022/06/04 13:20:22;;;;;;;50.38;47.55;;;32.50;99.90;;;;;;4993739;28;20572;-73
2022/06/04 13:22:53;;;;;;;42.00;39.70;;;32.30;99.60;;;;;;4993591;28;20279;-73
2022/06/04 13:25:52;;;;;;;73.95;69.90;;;32.20;97.30;;;;;;4993419;28;20591;-73
2022/06/04 13:28:38;;;;;;;12.05;11.10;;;32.30;99.50;;;;;;4980263;28;20188;-73
2022/06/04 13:31:15;;;;;;;8.93;7.57;;;33.80;95.20;;;;;;4993117;28;20209;-73
2022/06/04 13:33:41;;;;;;;7.85;7.35;;;34.20;92.30;;;;;;4993197;28;20723;-73
2022/06/04 13:36:07;;;;;;;17.60;9.63;;;33.40;92.60;;;;;;4991909;28;20196;-73
2022/06/04 13:38:40;;;;;;;7.07;6.47;;;33.00;92.40;;;;;;4993172;28;20204;-73
2022/06/04 13:41:14;;;;;;;6.90;6.40;;;32.30;92.70;;;;;;4992020;28;20180;-72
2022/06/04 13:43:43;;;;;;;7.30;6.80;;;31.70;94.80;;;;;;4992100;28;20606;-72
2022/06/04 13:46:38;;;;;;;8.73;7.93;;;32.30;93.70;;;;;;4991858;28;20203;-73
2022/06/04 13:49:12;;;;;;;8.05;7.45;;;32.00;92.90;;;;;;4975991;28;20669;-74
2022/06/04 13:51:43;;;;;;;16.48;15.57;;;31.40;94.00;;;;;;4991529;28;20275;-74
2022/06/04 13:54:26;;;;;;;10.55;9.77;;;31.40;94.40;;;;;;4993332;28;20618;-75
2022/06/04 13:56:54;;;;;;;6.68;6.22;;;32.00;93.70;;;;;;5008290;28;20189;-74
2022/06/04 13:59:28;;;;;;;5.40;5.10;;;33.40;91.30;;;;;;4992792;28;20233;-75
2022/06/04 14:02:00;;;;;;;6.70;6.32;;;34.40;86.30;;;;;;4992875;28;20660;-74
2022/06/04 14:07:15;;;;;;;7.15;6.47;;;35.30;81.40;;;;;;4994700;28;20255;-74
2022/06/04 14:09:55;;;;;;;14.77;13.90;;;36.40;76.50;;;;;;4992918;28;20199;-74
2022/06/04 14:13:02;;;;;;;31.98;30.40;;;36.20;76.20;;;;;;4992527;28;20647;-74
2022/06/04 14:16:06;;;;;;;32.90;31.17;;;35.70;75.30;;;;;;4991336;28;20254;-74
2022/06/04 14:18:45;;;;;;;22.98;21.70;;;35.70;75.20;;;;;;4991292;28;20180;-74
2022/06/04 14:21:31;;;;;;;19.52;18.52;;;35.40;73.50;;;;;;4992325;28;20188;-74
2022/06/04 14:24:06;;;;;;;18.92;17.67;;;34.80;72.90;;;;;;4992194;28;20275;-73
2022/06/04 14:27:17;;;;;;;22.67;21.38;;;34.60;70.50;;;;;;4992562;28;20211;-74
2022/06/04 14:30:31;;;;;;;17.55;16.70;;;34.70;70.40;;;;;;4992455;28;20275;-74
2022/06/04 14:32:59;;;;;;;8.05;7.57;;;35.20;68.20;;;;;;4963421;28;20229;-73
2022/06/04 14:35:36;;;;;;;32.38;30.52;;;35.80;64.80;;;;;;4973110;28;20561;-74
2022/06/04 14:38:16;;;;;;;24.13;23.02;;;35.20;66.10;;;;;;4972838;28;20184;-74
2022/06/04 14:40:54;;;;;;;10.82;10.32;;;35.00;67.20;;;;;;4972813;28;20648;-73
2022/06/04 14:43:53;;;;;;;6.70;6.20;;;35.30;65.90;;;;;;4990175;28;20215;-74
2022/06/04 14:46:52;;;;;;;8.07;7.57;;;36.10;64.90;;;;;;4990902;28;20892;-74
2022/06/04 14:50:11;;;;;;;6.95;6.47;;;36.20;63.20;;;;;;4992078;28;20187;-73
2022/06/04 14:52:43;;;;;;;9.10;8.60;;;35.80;65.90;;;;;;4911976;29;20573;-74
2022/06/04 14:55:19;;;;;;;6.10;5.70;;;36.40;63.60;;;;;;4962622;28;20208;-73
2022/06/04 14:58:03;;;;;;;8.52;7.93;;;36.30;63.20;;;;;;4972212;28;20336;-74
2022/06/04 15:01:01;;;;;;;7.28;6.88;;;35.60;66.50;;;;;;4972477;28;20197;-73
2022/06/04 15:03:45;;;;;;;7.70;7.18;;;35.60;66.00;;;;;;4966767;28;20587;-74
2022/06/04 15:06:38;;;;;;;7.30;6.97;;;35.70;67.80;;;;;;4972434;28;20212;-73
2022/06/04 15:09:10;;;;;;;9.35;8.85;;;34.40;68.20;;;;;;4972090;28;20184;-74
2022/06/04 15:11:49;;;;;;;7.30;6.70;;;34.20;69.30;;;;;;4986927;28;20192;-73
2022/06/04 15:14:46;;;;;;;11.40;10.70;;;34.30;68.20;;;;;;4991495;28;20234;-73
2022/06/04 15:17:28;;;;;;;10.20;9.65;;;33.80;71.40;;;;;;4986780;28;20200;-73
2022/06/04 15:20:08;;;;;;;8.77;8.30;;;34.60;65.20;;;;;;4991668;28;20267;-74
2022/06/04 15:22:59;;;;;;;14.57;13.82;;;34.80;66.50;;;;;;4992851;28;20254;-72
2022/06/04 15:25:38;;;;;;;7.13;6.72;;;34.30;65.00;;;;;;4992275;28;20770;-74
2022/06/04 15:34:36;;;;;;;12.52;11.93;;;34.10;69.40;;;;;;4972621;28;20280;-74
2022/06/04 15:37:11;;;;;;;9.20;8.63;;;33.70;70.20;;;;;;4975799;28;20255;-74
2022/06/04 15:39:58;;;;;;;9.50;8.80;;;33.20;70.80;;;;;;4976191;28;20737;-73
2022/06/04 15:42:44;;;;;;;8.63;8.13;;;33.40;69.60;;;;;;4984679;28;20187;-74
2022/06/04 15:45:21;;;;;;;10.55;9.85;;;33.50;69.00;;;;;;4994632;28;20612;-74
2022/06/04 15:48:03;;;;;;;8.82;8.23;;;33.30;68.30;;;;;;4995068;28;20275;-73
2022/06/04 15:56:18;;;;;;;17.25;16.40;;;34.50;65.20;;;;;;4975905;28;20216;-74
2022/06/04 15:58:53;;;;;;;11.88;11.32;;;34.30;66.20;;;;;;4974329;28;20192;-74
2022/06/04 16:01:41;;;;;;;10.35;9.82;;;34.30;67.60;;;;;;4976360;28;20210;-74
2022/06/04 16:04:10;;;;;;;8.10;7.55;;;34.40;67.40;;;;;;4995341;28;20193;-74
2022/06/04 16:06:38;;;;;;;14.05;12.95;;;34.20;67.40;;;;;;4994010;28;20731;-73
2022/06/04 16:09:21;;;;;;;15.98;15.00;;;33.50;69.50;;;;;;4994684;28;20184;-73
2022/06/04 16:12:02;;;;;;;12.57;11.68;;;33.60;69.20;;;;;;4994871;28;20242;-74
2022/06/04 16:14:41;;;;;;;13.18;12.20;;;33.20;70.10;;;;;;4994696;28;20211;-73
2022/06/04 16:17:32;;;;;;;11.32;10.40;;;33.00;69.00;;;;;;4993290;28;20184;-74
2022/06/04 16:20:11;;;;;;;8.95;8.45;;;33.10;68.60;;;;;;4993193;28;20191;-74
2022/06/04 16:22:49;;;;;;;8.85;8.25;;;33.80;68.10;;;;;;4994172;28;20191;-74
2022/06/04 16:25:50;;;;;;;9.27;8.77;;;33.70;68.10;;;;;;4994644;28;20720;-74
2022/06/04 16:28:19;;;;;;;11.00;10.30;;;33.90;66.80;;;;;;4942072;28;20197;-74
2022/06/04 16:31:04;;;;;;;11.95;11.25;;;34.00;67.20;;;;;;4993312;28;20214;-74